Time;durP1;ratioP1;P1;durP2;ratioP2;P2;SDS_P1;SDS_P2;PMS_P1;PMS_P2;Temp;Humidity;BMP_temperature;BMP_pressure;BME280_temperature;BME280_humidity;BME280_pressure;Samples;Min_cycle;Max_cycle;Signal;HPM_P1;HPM_P2
2024/04/13 00:00:59;;;;;;;1.00;0.90;;;18.90;97.10;;;;;;4181624;28;20410;-60
2024/04/13 00:03:01;;;;;;;0.90;0.60;;;18.90;97.10;;;;;;4181768;28;20049;-62
2024/04/13 00:05:02;;;;;;;2.90;0.98;;;18.90;97.20;;;;;;4190254;28;20592;-64
2024/04/13 00:07:03;;;;;;;1.27;1.08;;;18.80;97.20;;;;;;4185002;28;20056;-61
2024/04/13 00:09:04;;;;;;;2.15;0.65;;;18.80;97.10;;;;;;4183128;28;20520;-62
2024/04/13 00:11:08;;;;;;;1.05;0.90;;;18.80;97.20;;;;;;4192221;28;20052;-61
2024/04/13 00:13:10;;;;;;;1.40;0.60;;;18.80;97.10;;;;;;4181545;28;20068;-61
2024/04/13 00:15:11;;;;;;;17.67;0.85;;;18.80;97.10;;;;;;4188706;28;20056;-62
2024/04/13 00:17:14;;;;;;;2.60;0.80;;;18.80;97.00;;;;;;4198061;28;20044;-61
2024/04/13 00:19:15;;;;;;;1.20;0.65;;;18.80;97.10;;;;;;4182557;28;20502;-61
2024/04/13 00:21:16;;;;;;;1.42;0.75;;;18.80;97.00;;;;;;4192505;28;20049;-61
2024/04/13 00:23:18;;;;;;;2.40;0.80;;;18.80;97.20;;;;;;4192868;28;20048;-61
2024/04/13 00:25:19;;;;;;;0.90;0.65;;;18.80;97.10;;;;;;4194731;28;20041;-65
2024/04/13 00:27:23;;;;;;;0.40;0.40;;;18.70;97.20;;;;;;4189539;28;20059;-63
2024/04/13 00:29:24;;;;;;;0.82;0.70;;;18.80;97.10;;;;;;4182641;28;20095;-62
2024/04/13 00:31:25;;;;;;;1.67;0.50;;;18.70;97.20;;;;;;4190486;28;20044;-64
2024/04/13 00:33:27;;;;;;;0.80;0.80;;;18.70;97.10;;;;;;4182472;28;20048;-62
2024/04/13 00:35:32;;;;;;;1.00;0.50;;;18.70;97.20;;;;;;4186501;28;20045;-62
2024/04/13 00:37:33;;;;;;;1.30;1.15;;;18.70;97.20;;;;;;4189286;28;20100;-61
2024/04/13 00:39:34;;;;;;;1.58;0.80;;;18.70;97.00;;;;;;4181045;28;20107;-61
2024/04/13 00:41:35;;;;;;;1.02;0.68;;;18.70;97.00;;;;;;4192652;28;20082;-65
2024/04/13 00:43:37;;;;;;;5.45;0.57;;;18.70;97.10;;;;;;4181627;28;20170;-60
2024/04/13 00:45:42;;;;;;;1.50;0.95;;;18.70;97.00;;;;;;4183210;28;20051;-62
2024/04/13 00:47:45;;;;;;;0.60;0.60;;;18.70;97.00;;;;;;4190071;28;20503;-62
2024/04/13 00:49:48;;;;;;;0.95;0.52;;;18.60;97.10;;;;;;4181324;28;20506;-61
2024/04/13 00:51:52;;;;;;;0.93;0.60;;;18.60;96.80;;;;;;4192238;28;20048;-61
2024/04/13 00:53:55;;;;;;;0.55;0.55;;;18.50;96.90;;;;;;4182151;28;20098;-62
2024/04/13 00:56:00;;;;;;;2.00;1.10;;;18.60;96.90;;;;;;4183611;28;20044;-62
2024/04/13 00:58:01;;;;;;;1.88;0.50;;;18.60;96.90;;;;;;4191652;28;20041;-61
2024/04/13 01:00:05;;;;;;;0.60;0.60;;;18.60;97.10;;;;;;4181176;28;20449;-61
2024/04/13 01:02:10;;;;;;;2.03;0.65;;;18.50;96.90;;;;;;4191283;28;20052;-61
2024/04/13 01:04:12;;;;;;;0.60;0.60;;;18.50;97.10;;;;;;4165964;28;20049;-64
2024/04/13 01:06:14;;;;;;;0.55;0.50;;;18.50;96.80;;;;;;4184590;28;20044;-61
2024/04/13 01:08:16;;;;;;;0.75;0.55;;;18.40;96.60;;;;;;4186002;28;20052;-62
2024/04/13 01:10:17;;;;;;;1.05;0.73;;;18.40;97.00;;;;;;4198665;28;20049;-64
2024/04/13 01:12:18;;;;;;;1.35;0.30;;;18.50;96.90;;;;;;4189203;28;20557;-62
2024/04/13 01:14:20;;;;;;;1.20;0.60;;;18.50;96.80;;;;;;4193999;28;20481;-62
2024/04/13 01:16:26;;;;;;;0.95;0.68;;;18.50;97.00;;;;;;4195351;28;20041;-62
2024/04/13 01:18:29;;;;;;;0.30;0.30;;;18.40;97.00;;;;;;4185783;28;20402;-61
2024/04/13 01:20:33;;;;;;;3.80;0.50;;;18.50;97.10;;;;;;4197101;28;20052;-61
2024/04/13 01:22:38;;;;;;;0.55;0.55;;;18.50;96.90;;;;;;4193245;28;20056;-60
2024/04/13 01:24:44;;;;;;;0.50;0.50;;;18.50;97.00;;;;;;4193851;28;20048;-62
2024/04/13 01:26:48;;;;;;;1.13;0.45;;;18.50;97.20;;;;;;4183456;28;20048;-62
2024/04/13 01:28:49;;;;;;;0.77;0.20;;;18.40;97.00;;;;;;4169175;28;20045;-61
2024/04/13 01:30:52;;;;;;;1.80;0.55;;;18.50;97.10;;;;;;4196602;28;20052;-62
2024/04/13 01:32:54;;;;;;;1.33;0.40;;;18.40;97.20;;;;;;4183984;28;20052;-62
2024/04/13 01:34:55;;;;;;;2.60;0.73;;;18.50;97.00;;;;;;4192489;28;20117;-61
2024/04/13 01:36:56;;;;;;;0.88;0.30;;;18.40;96.90;;;;;;4194711;28;20418;-61
2024/04/13 01:38:57;;;;;;;0.75;0.60;;;18.40;97.10;;;;;;4185381;28;20041;-61
2024/04/13 01:41:00;;;;;;;0.85;0.55;;;18.40;97.10;;;;;;4196529;28;20045;-60
2024/04/13 01:43:01;;;;;;;2.95;1.25;;;18.40;97.20;;;;;;4195008;28;20048;-62
2024/04/13 01:45:03;;;;;;;3.25;0.95;;;18.40;97.40;;;;;;4185725;28;20442;-61
2024/04/13 01:47:05;;;;;;;0.73;0.40;;;18.40;97.20;;;;;;4180947;28;20156;-62
2024/04/13 01:49:06;;;;;;;0.35;0.35;;;18.40;97.30;;;;;;4191002;28;20098;-60
2024/04/13 01:51:07;;;;;;;0.65;0.50;;;18.30;97.00;;;;;;4179708;28;20457;-60
2024/04/13 01:53:09;;;;;;;1.27;0.40;;;18.30;97.50;;;;;;4184236;28;20041;-61
2024/04/13 01:55:10;;;;;;;0.40;0.40;;;18.30;97.30;;;;;;4187584;28;20052;-60
2024/04/13 01:57:13;;;;;;;0.55;0.40;;;18.30;97.30;;;;;;4179854;28;20041;-61
2024/04/13 01:59:14;;;;;;;0.95;0.60;;;18.30;97.30;;;;;;4191679;28;20441;-61
2024/04/13 02:01:15;;;;;;;0.88;0.40;;;18.30;97.30;;;;;;4179677;28;20256;-61
2024/04/13 02:03:16;;;;;;;1.08;0.50;;;18.20;97.20;;;;;;4182578;28;20037;-61
2024/04/13 02:05:17;;;;;;;0.60;0.50;;;18.20;97.40;;;;;;4189168;28;20049;-61
2024/04/13 02:07:18;;;;;;;0.93;0.40;;;18.20;97.80;;;;;;4179150;28;20482;-61
2024/04/13 02:09:20;;;;;;;1.48;0.70;;;18.20;97.60;;;;;;4189964;28;20094;-60
2024/04/13 02:11:21;;;;;;;1.70;1.30;;;18.00;97.70;;;;;;4181987;28;20037;-60
2024/04/13 02:13:24;;;;;;;1.40;0.52;;;18.00;97.80;;;;;;4181135;28;20041;-61
2024/04/13 02:15:25;;;;;;;1.10;0.40;;;17.90;97.90;;;;;;4185231;28;20044;-61
2024/04/13 02:17:27;;;;;;;0.75;0.55;;;17.90;98.10;;;;;;4196330;28;20057;-61
2024/04/13 02:19:28;;;;;;;2.15;0.88;;;17.90;98.30;;;;;;4186975;28;20041;-61
2024/04/13 02:21:30;;;;;;;1.00;0.43;;;17.90;98.10;;;;;;4191313;28;20048;-61
2024/04/13 02:23:31;;;;;;;1.98;0.75;;;17.90;98.00;;;;;;4193724;28;20057;-61
2024/04/13 02:25:33;;;;;;;0.70;0.60;;;17.90;98.10;;;;;;4190875;28;20138;-61
2024/04/13 02:27:34;;;;;;;2.67;0.40;;;17.90;98.10;;;;;;4179706;28;20051;-62
2024/04/13 02:29:38;;;;;;;1.27;0.47;;;17.80;98.00;;;;;;4186599;28;20045;-62
2024/04/13 02:31:40;;;;;;;1.23;0.40;;;17.80;98.10;;;;;;4185234;28;20041;-62
2024/04/13 02:33:41;;;;;;;0.30;0.30;;;17.80;97.90;;;;;;4180896;28;20052;-61
2024/04/13 02:35:42;;;;;;;0.77;0.77;;;17.80;98.10;;;;;;4190442;28;20048;-61
2024/04/13 02:37:43;;;;;;;0.80;0.40;;;17.90;98.20;;;;;;4179228;28;20052;-61
2024/04/13 02:39:44;;;;;;;0.77;0.77;;;17.80;98.00;;;;;;4184047;28;20045;-61
2024/04/13 02:41:45;;;;;;;3.83;1.20;;;17.80;97.80;;;;;;4186903;28;20501;-61
2024/04/13 02:43:46;;;;;;;1.77;0.95;;;17.80;97.90;;;;;;4179740;28;20041;-60
2024/04/13 02:45:49;;;;;;;1.13;0.57;;;17.80;98.10;;;;;;4175352;28;20083;-61
2024/04/13 02:47:50;;;;;;;1.35;0.63;;;17.80;98.00;;;;;;4179397;28;20049;-61
2024/04/13 02:49:52;;;;;;;1.35;1.05;;;17.80;98.00;;;;;;4181629;28;20048;-61
2024/04/13 02:51:53;;;;;;;0.50;0.50;;;17.80;98.20;;;;;;4188018;28;20175;-61
2024/04/13 02:53:54;;;;;;;4.85;0.82;;;17.70;97.90;;;;;;4179050;28;20079;-61
2024/04/13 02:55:55;;;;;;;1.17;0.60;;;17.80;98.30;;;;;;4189652;28;20053;-61
2024/04/13 02:57:56;;;;;;;1.10;0.70;;;17.70;98.10;;;;;;4181185;28;20122;-65
2024/04/13 02:59:57;;;;;;;1.58;0.70;;;17.70;97.90;;;;;;4180405;28;20404;-61
2024/04/13 03:02:00;;;;;;;0.98;0.60;;;17.70;98.20;;;;;;4184359;28;20040;-61
2024/04/13 03:04:01;;;;;;;2.88;0.63;;;17.60;98.20;;;;;;4195117;28;20055;-61
2024/04/13 03:06:04;;;;;;;0.30;0.30;;;17.60;98.20;;;;;;4182991;28;20044;-61
2024/04/13 03:08:09;;;;;;;5.78;0.75;;;17.70;98.30;;;;;;4192499;28;20045;-61
2024/04/13 03:10:13;;;;;;;1.63;0.82;;;17.70;98.20;;;;;;4194259;28;20053;-60
2024/04/13 03:12:15;;;;;;;3.28;0.98;;;17.70;98.20;;;;;;4190558;28;20141;-61
2024/04/13 03:14:16;;;;;;;2.13;1.00;;;17.60;98.30;;;;;;4179262;28;20115;-62
2024/04/13 03:16:17;;;;;;;1.92;0.73;;;17.60;98.20;;;;;;4191433;28;20037;-60
2024/04/13 03:18:20;;;;;;;0.63;0.30;;;17.60;98.30;;;;;;4183876;28;20514;-61
2024/04/13 03:20:21;;;;;;;1.13;0.50;;;17.50;98.30;;;;;;4181340;28;20091;-62
2024/04/13 03:22:22;;;;;;;2.25;0.80;;;17.50;98.30;;;;;;4193162;28;20044;-61
2024/04/13 03:24:23;;;;;;;0.88;0.40;;;17.60;98.40;;;;;;4195562;28;20044;-61
2024/04/13 03:26:25;;;;;;;0.80;0.50;;;17.60;98.30;;;;;;4188919;28;20045;-60
2024/04/13 03:28:27;;;;;;;0.30;0.30;;;17.60;98.50;;;;;;4189486;28;20048;-61
2024/04/13 03:30:28;;;;;;;1.67;0.90;;;17.60;98.30;;;;;;4195113;28;20069;-62
2024/04/13 03:32:29;;;;;;;1.05;0.93;;;17.60;98.70;;;;;;4185492;28;20064;-61
2024/04/13 03:34:31;;;;;;;3.67;0.98;;;17.50;98.60;;;;;;4198337;28;20045;-61
2024/04/13 03:36:33;;;;;;;2.33;0.60;;;17.40;98.70;;;;;;4193918;28;20045;-61
2024/04/13 03:38:34;;;;;;;2.95;0.52;;;17.40;98.60;;;;;;4190619;28;20040;-61
2024/04/13 03:40:36;;;;;;;0.50;0.50;;;17.40;98.50;;;;;;4198461;28;20578;-61
2024/04/13 03:42:37;;;;;;;0.73;0.50;;;17.40;98.80;;;;;;4186620;28;20048;-62
2024/04/13 03:44:38;;;;;;;3.08;1.52;;;17.40;98.70;;;;;;4197668;28;20048;-61
2024/04/13 03:46:39;;;;;;;2.85;0.80;;;17.30;98.70;;;;;;4195819;28;20563;-61
2024/04/13 03:48:41;;;;;;;1.45;0.60;;;17.20;99.00;;;;;;4187894;28;20048;-61
2024/04/13 03:50:44;;;;;;;0.90;0.70;;;17.20;99.00;;;;;;4198300;28;20041;-61
2024/04/13 03:52:45;;;;;;;0.52;0.40;;;17.20;99.30;;;;;;4187997;28;20041;-62
2024/04/13 03:54:47;;;;;;;1.38;0.95;;;17.20;99.00;;;;;;4196213;28;20044;-61
2024/04/13 03:56:48;;;;;;;1.60;0.75;;;17.20;98.90;;;;;;4197138;28;20040;-61
2024/04/13 03:58:49;;;;;;;1.88;0.95;;;17.20;98.80;;;;;;4187528;28;20040;-61
2024/04/13 04:00:50;;;;;;;1.23;0.50;;;17.30;99.10;;;;;;4199827;28;20567;-62
2024/04/13 04:02:51;;;;;;;0.40;0.40;;;17.30;99.10;;;;;;4191206;28;20048;-62
2024/04/13 04:04:53;;;;;;;0.55;0.55;;;17.20;99.00;;;;;;4195543;28;20052;-65
2024/04/13 04:06:55;;;;;;;0.63;0.40;;;17.20;99.00;;;;;;4197434;28;20049;-63
2024/04/13 04:08:56;;;;;;;2.05;0.50;;;17.20;98.80;;;;;;4193221;28;20575;-62
2024/04/13 04:10:57;;;;;;;0.90;0.55;;;17.20;99.00;;;;;;4181836;28;20049;-61
2024/04/13 04:13:01;;;;;;;0.90;0.73;;;17.20;98.70;;;;;;4186874;28;20041;-62
2024/04/13 04:15:02;;;;;;;1.52;0.50;;;17.20;99.00;;;;;;4192423;28;20044;-61
2024/04/13 04:17:04;;;;;;;1.35;1.02;;;17.20;99.10;;;;;;4196803;28;20067;-61
2024/04/13 04:19:05;;;;;;;0.77;0.60;;;17.10;99.00;;;;;;4181053;28;20053;-61
2024/04/13 04:21:06;;;;;;;1.67;0.75;;;17.10;99.30;;;;;;4197970;28;20055;-61
2024/04/13 04:23:08;;;;;;;3.50;0.93;;;17.00;99.30;;;;;;4193067;28;20486;-61
2024/04/13 04:25:10;;;;;;;1.15;0.65;;;17.00;99.40;;;;;;4188725;28;20106;-60
2024/04/13 04:27:11;;;;;;;2.28;0.60;;;17.00;99.50;;;;;;4181253;28;20045;-61
2024/04/13 04:29:14;;;;;;;1.48;0.68;;;17.10;99.60;;;;;;4192992;28;20071;-60
2024/04/13 04:31:15;;;;;;;1.27;0.88;;;17.00;99.50;;;;;;4180642;28;20045;-61
2024/04/13 04:33:17;;;;;;;0.68;0.68;;;16.90;99.30;;;;;;4183975;28;20037;-60
2024/04/13 04:35:18;;;;;;;1.23;0.60;;;16.90;99.40;;;;;;4190267;28;20552;-60
2024/04/13 04:37:19;;;;;;;1.50;0.80;;;16.90;99.50;;;;;;4181209;28;20072;-60
2024/04/13 04:39:24;;;;;;;3.92;1.20;;;16.80;99.60;;;;;;4191316;28;20060;-60
2024/04/13 04:41:26;;;;;;;11.25;0.98;;;16.80;99.60;;;;;;4182485;28;20518;-60
2024/04/13 04:43:28;;;;;;;1.63;0.75;;;16.90;99.70;;;;;;4181441;28;20044;-61
2024/04/13 04:45:29;;;;;;;0.82;0.73;;;16.90;99.90;;;;;;4191406;28;20091;-60
2024/04/13 04:47:30;;;;;;;1.65;0.70;;;16.80;99.90;;;;;;4180917;28;20045;-61
2024/04/13 04:49:32;;;;;;;1.08;0.65;;;16.80;99.90;;;;;;4189836;28;20040;-60
2024/04/13 04:51:33;;;;;;;1.25;0.60;;;16.70;99.90;;;;;;4167620;28;20049;-61
2024/04/13 04:53:34;;;;;;;1.08;0.45;;;16.70;99.90;;;;;;4182154;28;20049;-61
2024/04/13 04:55:36;;;;;;;1.60;1.15;;;16.70;99.90;;;;;;4191944;28;20045;-61
2024/04/13 04:57:37;;;;;;;1.73;0.77;;;16.70;99.90;;;;;;4180902;28;20544;-61
2024/04/13 04:59:39;;;;;;;0.85;0.40;;;16.70;99.90;;;;;;4187917;28;20047;-62
2024/04/13 05:01:40;;;;;;;1.27;1.17;;;16.70;99.90;;;;;;4186161;28;20045;-61
2024/04/13 05:03:42;;;;;;;1.20;0.90;;;16.70;99.90;;;;;;4181983;28;20430;-61
2024/04/13 05:05:43;;;;;;;1.27;0.60;;;16.70;99.90;;;;;;4186205;28;20479;-61
2024/04/13 05:07:45;;;;;;;2.50;0.75;;;16.70;99.90;;;;;;4197623;28;20055;-61
2024/04/13 05:09:46;;;;;;;0.60;0.57;;;16.70;99.90;;;;;;4193218;28;20055;-62
2024/04/13 05:11:49;;;;;;;1.58;1.15;;;16.80;99.90;;;;;;4187889;28;20395;-62
2024/04/13 05:13:50;;;;;;;2.88;0.70;;;16.70;99.90;;;;;;4180315;28;20060;-62
2024/04/13 05:15:51;;;;;;;3.65;1.52;;;16.70;99.90;;;;;;4192307;28;20062;-61
2024/04/13 05:17:52;;;;;;;3.95;1.88;;;16.70;99.90;;;;;;4180630;28;20045;-62
2024/04/13 05:19:53;;;;;;;4.63;2.45;;;16.70;99.90;;;;;;4183810;28;20474;-61
2024/04/13 05:21:56;;;;;;;5.93;1.40;;;16.60;99.90;;;;;;4189625;28;20071;-60
2024/04/13 05:23:58;;;;;;;2.20;1.25;;;16.50;99.90;;;;;;4196716;28;20052;-61
2024/04/13 05:25:59;;;;;;;1.55;0.82;;;16.50;99.90;;;;;;4185090;28;20049;-62
2024/04/13 05:28:02;;;;;;;1.52;1.00;;;16.40;99.90;;;;;;4195564;28;20521;-62
2024/04/13 05:30:04;;;;;;;2.00;0.88;;;16.50;99.90;;;;;;4194289;28;20040;-62
2024/04/13 05:32:07;;;;;;;1.27;0.60;;;16.50;99.90;;;;;;4190661;28;20454;-61
2024/04/13 05:34:08;;;;;;;2.13;1.20;;;16.50;99.90;;;;;;4196931;28;20056;-61
2024/04/13 05:36:09;;;;;;;2.60;1.50;;;16.60;99.90;;;;;;4192390;28;20067;-61
2024/04/13 05:38:10;;;;;;;4.25;1.75;;;16.60;99.90;;;;;;4183069;28;20484;-60
2024/04/13 05:40:12;;;;;;;4.18;1.30;;;16.70;99.90;;;;;;4181302;28;20083;-61
2024/04/13 05:42:14;;;;;;;3.85;1.30;;;16.70;99.90;;;;;;4195856;28;20054;-61
2024/04/13 05:44:18;;;;;;;1.63;0.90;;;16.80;99.90;;;;;;4196474;28;20052;-60
2024/04/13 05:46:19;;;;;;;;;;;16.80;99.90;;;;;;4176184;28;20064;-61
2024/04/13 05:48:21;;;;;;;3.55;1.90;;;16.80;99.90;;;;;;4184223;28;20360;-61
2024/04/13 05:50:22;;;;;;;3.22;2.05;;;16.70;99.90;;;;;;4182718;28;20505;-61
2024/04/13 05:52:23;;;;;;;1.75;1.30;;;16.70;99.90;;;;;;4185562;28;20474;-61
2024/04/13 05:54:25;;;;;;;3.22;2.00;;;16.70;99.90;;;;;;4196470;28;20506;-61
2024/04/13 05:56:26;;;;;;;2.80;1.75;;;16.70;99.90;;;;;;4190127;28;20049;-63
2024/04/13 05:58:27;;;;;;;3.80;1.67;;;16.80;99.90;;;;;;4190169;28;20055;-60
2024/04/13 06:00:29;;;;;;;3.90;1.15;;;16.80;99.90;;;;;;4195650;28;20048;-60
2024/04/13 06:02:30;;;;;;;0.70;0.50;;;16.80;99.90;;;;;;4184592;28;20456;-60
2024/04/13 06:04:32;;;;;;;3.25;1.05;;;16.70;99.90;;;;;;4179843;28;20482;-61
2024/04/13 06:06:33;;;;;;;1.58;0.75;;;16.90;99.90;;;;;;4175047;28;20044;-60
2024/04/13 06:08:44;;;;;;;1.83;1.13;;;16.90;99.90;;;;;;4174491;28;20073;-61
2024/04/13 06:10:45;;;;;;;0.88;0.47;;;17.00;99.90;;;;;;4195734;28;20094;-61
2024/04/13 06:12:48;;;;;;;1.38;0.75;;;17.00;99.90;;;;;;4183216;28;20045;-61
2024/04/13 06:14:49;;;;;;;1.08;0.60;;;17.10;99.90;;;;;;4195939;28;20045;-60
2024/04/13 06:16:52;;;;;;;3.53;1.25;;;17.10;99.90;;;;;;4191786;28;20510;-61
2024/04/13 06:18:53;;;;;;;3.80;2.03;;;17.20;99.90;;;;;;4188079;28;20048;-60
2024/04/13 06:20:54;;;;;;;5.38;1.70;;;17.20;99.90;;;;;;4196334;28;20044;-60
2024/04/13 06:22:55;;;;;;;5.18;2.50;;;17.20;99.80;;;;;;4191548;28;20052;-61
2024/04/13 06:24:57;;;;;;;4.82;1.40;;;17.30;99.90;;;;;;4195919;28;20052;-61
2024/04/13 06:26:58;;;;;;;2.75;1.33;;;17.30;99.90;;;;;;4193017;28;20098;-62
2024/04/13 06:28:59;;;;;;;4.20;1.20;;;17.30;99.80;;;;;;4185859;28;20045;-60
2024/04/13 06:31:00;;;;;;;2.60;1.17;;;17.40;99.90;;;;;;4194548;28;20102;-60
2024/04/13 06:33:03;;;;;;;3.10;0.90;;;17.40;99.50;;;;;;4188746;28;20048;-61
2024/04/13 06:35:08;;;;;;;3.50;1.48;;;17.40;99.80;;;;;;4182077;28;20102;-66
2024/04/13 06:37:11;;;;;;;2.65;0.82;;;17.40;99.80;;;;;;4180624;28;20052;-61
2024/04/13 06:39:14;;;;;;;1.27;0.75;;;17.50;99.40;;;;;;4190608;28;20377;-61
2024/04/13 06:41:15;;;;;;;1.13;1.02;;;17.50;99.80;;;;;;4179306;28;20052;-62
2024/04/13 06:43:16;;;;;;;2.72;1.20;;;17.50;99.60;;;;;;4188130;28;20118;-62
2024/04/13 06:45:17;;;;;;;2.55;1.00;;;17.50;99.70;;;;;;4183325;28;20076;-61
2024/04/13 06:47:18;;;;;;;0.82;0.50;;;17.60;99.70;;;;;;4181891;28;20475;-61
2024/04/13 06:49:21;;;;;;;2.55;1.35;;;17.70;99.60;;;;;;4184964;28;20427;-64
2024/04/13 06:51:22;;;;;;;0.50;0.50;;;17.70;99.40;;;;;;4196243;28;20048;-61
2024/04/13 06:53:25;;;;;;;1.83;0.70;;;17.70;99.10;;;;;;4189172;28;20054;-62
2024/04/13 06:55:26;;;;;;;1.08;0.98;;;17.80;99.10;;;;;;4191823;28;20135;-63
2024/04/13 06:57:27;;;;;;;6.22;1.02;;;17.90;99.20;;;;;;4194117;28;20052;-62
2024/04/13 06:59:28;;;;;;;0.82;0.50;;;17.90;99.00;;;;;;4184618;28;20045;-61
2024/04/13 07:01:30;;;;;;;1.17;0.95;;;18.00;98.60;;;;;;4195886;28;20499;-62
2024/04/13 07:03:31;;;;;;;0.63;0.40;;;18.10;98.60;;;;;;4190908;28;20562;-62
2024/04/13 07:05:33;;;;;;;3.33;1.25;;;18.10;98.20;;;;;;4189165;28;20044;-62
2024/04/13 07:07:35;;;;;;;4.32;1.58;;;18.10;98.10;;;;;;4198437;28;20048;-63
2024/04/13 07:09:36;;;;;;;1.75;0.70;;;18.10;98.10;;;;;;4187243;28;20138;-64
2024/04/13 07:11:37;;;;;;;4.10;0.80;;;18.10;98.50;;;;;;4199636;28;20098;-62
2024/04/13 07:13:38;;;;;;;2.38;0.93;;;18.10;98.20;;;;;;4195718;28;20044;-61
2024/04/13 07:15:40;;;;;;;1.00;0.63;;;18.20;98.50;;;;;;4189718;28;20055;-61
2024/04/13 07:17:41;;;;;;;0.75;0.50;;;18.20;98.20;;;;;;4200669;28;20433;-65
2024/04/13 07:19:43;;;;;;;3.28;0.95;;;18.20;98.40;;;;;;4206036;28;20044;-62
2024/04/13 07:21:46;;;;;;;3.17;0.63;;;18.30;98.00;;;;;;4199040;28;20049;-64
2024/04/13 07:23:48;;;;;;;0.73;0.52;;;18.30;98.00;;;;;;4195667;28;20119;-67
2024/04/13 07:25:56;;;;;;;0.82;0.65;;;18.30;98.40;;;;;;4177976;28;20086;-63
2024/04/13 07:27:57;;;;;;;4.57;0.95;;;18.40;97.70;;;;;;4183239;28;20041;-61
2024/04/13 07:29:59;;;;;;;0.95;0.50;;;18.40;98.00;;;;;;4183670;28;20045;-62
2024/04/13 07:32:00;;;;;;;0.80;0.50;;;18.60;98.00;;;;;;4196310;28;20040;-62
2024/04/13 07:34:01;;;;;;;1.25;1.00;;;18.60;98.00;;;;;;4197256;28;20037;-62
2024/04/13 07:36:03;;;;;;;0.50;0.50;;;18.90;97.60;;;;;;4198521;28;20045;-62
2024/04/13 07:38:06;;;;;;;3.80;0.95;;;19.10;96.80;;;;;;4198760;28;20581;-62
2024/04/13 07:40:09;;;;;;;1.95;1.60;;;19.20;96.70;;;;;;4189590;28;20099;-62
2024/04/13 07:42:10;;;;;;;2.67;1.08;;;19.40;96.20;;;;;;4194691;28;20096;-62
2024/04/13 07:44:13;;;;;;;3.35;1.63;;;19.50;96.40;;;;;;4196486;28;20045;-62
2024/04/13 07:46:14;;;;;;;1.48;0.82;;;19.50;96.10;;;;;;4187211;28;20429;-65
2024/04/13 07:48:15;;;;;;;1.33;0.93;;;19.80;95.60;;;;;;4198258;28;20052;-62
2024/04/13 07:50:19;;;;;;;1.30;0.60;;;19.80;95.60;;;;;;4191175;28;20071;-62
2024/04/13 07:52:20;;;;;;;7.88;1.88;;;19.80;95.50;;;;;;4193092;28;20041;-66
2024/04/13 07:54:22;;;;;;;1.77;0.73;;;19.90;95.20;;;;;;4196516;28;20041;-62
2024/04/13 07:56:24;;;;;;;1.30;1.05;;;19.90;95.40;;;;;;4186944;28;20128;-62
2024/04/13 07:58:25;;;;;;;0.93;0.60;;;20.20;95.80;;;;;;4197719;28;20150;-62
2024/04/13 08:00:26;;;;;;;3.92;1.10;;;20.20;95.20;;;;;;4192593;28;20498;-64
2024/04/13 08:02:28;;;;;;;1.27;0.50;;;20.40;95.00;;;;;;4191185;28;20045;-62
2024/04/13 08:04:29;;;;;;;0.40;0.40;;;20.50;95.10;;;;;;4198123;28;20094;-62
2024/04/13 08:06:30;;;;;;;1.13;0.80;;;20.50;94.70;;;;;;4185542;28;20072;-62
2024/04/13 08:08:34;;;;;;;1.77;0.82;;;20.70;94.70;;;;;;4197780;28;20478;-63
2024/04/13 08:10:42;;;;;;;0.82;0.50;;;20.80;94.80;;;;;;4194309;28;20044;-62
2024/04/13 08:12:43;;;;;;;2.28;1.23;;;20.90;94.40;;;;;;4190088;28;20094;-62
2024/04/13 08:14:47;;;;;;;0.63;0.50;;;21.00;94.60;;;;;;4198265;28;20059;-62
2024/04/13 08:16:48;;;;;;;1.63;1.10;;;21.00;94.60;;;;;;4185382;28;20045;-62
2024/04/13 08:18:49;;;;;;;0.80;0.70;;;21.10;94.50;;;;;;4197737;28;20044;-63
2024/04/13 08:20:51;;;;;;;1.55;0.60;;;21.20;93.80;;;;;;4198090;28;20048;-62
2024/04/13 08:22:52;;;;;;;1.50;0.77;;;21.40;94.40;;;;;;4189420;28;20063;-66
2024/04/13 08:24:54;;;;;;;1.65;0.98;;;21.40;94.30;;;;;;4182400;28;20049;-61
2024/04/13 08:26:56;;;;;;;1.23;0.95;;;21.60;94.30;;;;;;4198417;28;20045;-62
2024/04/13 08:28:58;;;;;;;1.75;0.50;;;21.90;93.80;;;;;;4197163;28;20090;-62
2024/04/13 08:31:03;;;;;;;0.90;0.60;;;21.90;93.00;;;;;;4195351;28;20040;-62
2024/04/13 08:33:05;;;;;;;0.90;0.60;;;22.10;93.60;;;;;;4188542;28;20512;-62
2024/04/13 08:35:07;;;;;;;3.90;0.55;;;22.00;92.90;;;;;;4197636;28;20045;-63
2024/04/13 08:37:08;;;;;;;0.65;0.40;;;22.00;92.70;;;;;;4196351;28;20490;-63
2024/04/13 08:39:12;;;;;;;2.03;0.77;;;22.10;93.10;;;;;;4185807;28;20045;-62
2024/04/13 08:41:22;;;;;;;8.25;1.77;;;22.00;93.20;;;;;;4183617;28;20051;-68
2024/04/13 08:43:25;;;;;;;3.13;1.38;;;21.90;93.70;;;;;;4188599;28;20044;-62
2024/04/13 08:45:27;;;;;;;0.80;0.50;;;21.90;93.30;;;;;;4198498;28;20053;-62
2024/04/13 08:47:31;;;;;;;1.35;0.65;;;21.80;92.80;;;;;;4192763;28;20074;-62
2024/04/13 08:49:39;;;;;;;0.60;0.43;;;21.80;93.30;;;;;;4183726;28;20415;-60
2024/04/13 08:51:43;;;;;;;0.50;0.47;;;21.90;93.40;;;;;;4181684;28;20449;-62
2024/04/13 08:53:47;;;;;;;1.52;0.40;;;21.90;93.50;;;;;;4180778;28;20052;-62
2024/04/13 08:55:50;;;;;;;0.93;0.75;;;22.00;92.80;;;;;;4180904;28;20103;-62
2024/04/13 08:57:52;;;;;;;1.35;0.50;;;22.00;93.30;;;;;;4190161;28;20098;-63
2024/04/13 08:59:58;;;;;;;0.70;0.65;;;22.10;93.40;;;;;;4183553;28;20053;-62
2024/04/13 09:02:04;;;;;;;2.47;0.77;;;22.00;93.10;;;;;;4182114;28;20091;-62
2024/04/13 09:04:06;;;;;;;1.77;0.52;;;22.00;92.80;;;;;;4186437;28;20552;-62
2024/04/13 09:06:08;;;;;;;1.23;0.73;;;22.00;93.20;;;;;;4180700;28;20052;-62
2024/04/13 09:08:12;;;;;;;1.20;0.50;;;22.10;92.90;;;;;;4190854;28;20448;-63
2024/04/13 09:10:15;;;;;;;0.75;0.50;;;22.10;93.50;;;;;;4197120;28;20045;-62
2024/04/13 09:12:16;;;;;;;1.20;0.70;;;22.30;93.10;;;;;;4193966;28;20057;-62
2024/04/13 09:14:17;;;;;;;0.73;0.28;;;22.40;92.60;;;;;;4190953;28;20048;-63
2024/04/13 09:16:20;;;;;;;0.40;0.38;;;22.50;92.40;;;;;;4191702;28;20536;-62
2024/04/13 09:18:21;;;;;;;0.85;0.57;;;22.60;92.80;;;;;;4188588;28;20094;-61
2024/04/13 09:20:24;;;;;;;0.70;0.55;;;22.80;92.20;;;;;;4180627;28;20049;-62
2024/04/13 09:22:27;;;;;;;1.60;0.95;;;22.80;92.20;;;;;;4183123;28;20048;-63
2024/04/13 09:24:39;;;;;;;0.85;0.70;;;22.80;92.40;;;;;;4193092;28;20094;-62
2024/04/13 09:26:41;;;;;;;1.35;0.80;;;22.80;92.40;;;;;;4189615;28;20055;-62
2024/04/13 09:28:44;;;;;;;3.78;1.00;;;22.80;92.00;;;;;;4189271;28;20048;-62
2024/04/13 09:30:47;;;;;;;0.90;0.32;;;22.90;92.10;;;;;;4193418;28;20048;-63
2024/04/13 09:32:59;;;;;;;2.58;0.60;;;22.90;92.30;;;;;;4193511;28;20085;-66
2024/04/13 09:35:08;;;;;;;1.25;0.80;;;23.00;92.20;;;;;;4195988;28;20040;-62
2024/04/13 09:37:10;;;;;;;0.60;0.35;;;23.10;91.80;;;;;;4197412;28;20063;-62
2024/04/13 09:39:26;;;;;;;0.60;0.47;;;23.10;92.10;;;;;;4188136;28;20045;-63
2024/04/13 09:41:28;;;;;;;0.68;0.52;;;23.20;92.20;;;;;;4199239;28;20106;-63
2024/04/13 09:43:33;;;;;;;4.35;1.48;;;23.20;92.00;;;;;;4191617;28;20055;-63
2024/04/13 09:45:38;;;;;;;2.15;0.75;;;23.10;91.40;;;;;;4194810;28;20086;-63
2024/04/13 09:47:39;;;;;;;1.95;1.00;;;23.20;91.80;;;;;;4196070;28;20045;-62
2024/04/13 09:49:43;;;;;;;0.85;0.43;;;23.10;91.60;;;;;;4182872;28;20053;-62
2024/04/13 09:51:46;;;;;;;0.57;0.52;;;23.10;91.70;;;;;;4194404;28;20055;-63
2024/04/13 09:53:48;;;;;;;0.65;0.30;;;23.10;91.90;;;;;;4192307;28;20041;-63
2024/04/13 09:55:50;;;;;;;2.80;0.60;;;23.10;92.00;;;;;;4196375;28;20052;-62
2024/04/13 09:57:52;;;;;;;1.70;0.60;;;23.10;91.50;;;;;;4196242;28;20053;-62
2024/04/13 09:59:54;;;;;;;0.98;0.25;;;23.10;90.70;;;;;;4192037;28;20478;-63
2024/04/13 10:01:56;;;;;;;0.82;0.50;;;23.10;91.80;;;;;;4196524;28;20627;-67
2024/04/13 10:03:58;;;;;;;0.30;0.22;;;23.20;91.40;;;;;;4176226;28;20053;-62
2024/04/13 10:06:01;;;;;;;0.95;0.60;;;23.20;91.30;;;;;;4189842;28;20040;-62
2024/04/13 10:08:05;;;;;;;2.10;0.65;;;23.10;91.60;;;;;;4194246;28;20106;-63
2024/04/13 10:10:13;;;;;;;1.90;0.65;;;23.20;91.50;;;;;;4187437;28;20036;-62
2024/04/13 10:12:19;;;;;;;0.40;0.25;;;23.20;91.20;;;;;;4190053;28;20049;-62
2024/04/13 10:14:24;;;;;;;1.25;0.30;;;23.20;91.40;;;;;;4191502;28;20044;-64
2024/04/13 10:16:25;;;;;;;;;;;23.30;91.80;;;;;;4187149;28;20122;-63
2024/04/13 10:18:27;;;;;;;1.83;0.50;;;23.40;91.10;;;;;;4194956;28;20559;-63
2024/04/13 10:20:28;;;;;;;0.60;0.47;;;23.60;91.40;;;;;;4190160;28;20040;-62
2024/04/13 10:22:33;;;;;;;0.30;0.30;;;23.60;91.20;;;;;;4193213;28;20060;-63
2024/04/13 10:24:43;;;;;;;1.70;1.05;;;23.60;90.70;;;;;;4193254;28;20048;-62
2024/04/13 10:26:44;;;;;;;1.67;1.40;;;23.50;89.90;;;;;;4194935;28;20395;-62
2024/04/13 10:28:56;;;;;;;2.00;0.47;;;23.50;90.60;;;;;;4195904;28;20122;-62
2024/04/13 10:30:57;;;;;;;0.38;0.20;;;23.60;90.60;;;;;;4186540;28;20048;-63
2024/04/13 10:32:58;;;;;;;4.40;0.95;;;23.60;90.90;;;;;;4195086;28;20051;-62
2024/04/13 10:35:07;;;;;;;0.95;0.60;;;23.60;90.80;;;;;;4192033;28;20122;-63
2024/04/13 10:37:23;;;;;;;1.55;0.40;;;23.70;90.70;;;;;;4194128;28;20048;-62